sensor_id;sensor_type;location;lat;lon;timestamp;pressure;altitude;pressure_sealevel;temperature;humidity
55291;BME280;41155;39.768;2.712;2023-04-24T00:00:17;101062.94;;;17.46;49.78
55291;BME280;41155;39.768;2.712;2023-04-24T00:02:43;101056.38;;;17.47;50.11
55291;BME280;41155;39.768;2.712;2023-04-24T00:05:16;101043.84;;;17.46;50.24
55291;BME280;41155;39.768;2.712;2023-04-24T00:07:44;101060.13;;;17.56;50.16
55291;BME280;41155;39.768;2.712;2023-04-24T00:10:10;101052.78;;;17.52;50.40
55291;BME280;41155;39.768;2.712;2023-04-24T00:12:36;101077.34;;;17.52;50.62
55291;BME280;41155;39.768;2.712;2023-04-24T00:15:02;101074.34;;;17.53;50.83
55291;BME280;41155;39.768;2.712;2023-04-24T00:17:28;101077.34;;;17.52;51.32
55291;BME280;41155;39.768;2.712;2023-04-24T00:19:54;101068.84;;;17.29;52.55
55291;BME280;41155;39.768;2.712;2023-04-24T00:22:27;101051.75;;;16.89;53.35
55291;BME280;41155;39.768;2.712;2023-04-24T00:24:52;101075.88;;;17.06;53.38
55291;BME280;41155;39.768;2.712;2023-04-24T00:27:18;101053.34;;;16.96;53.71
55291;BME280;41155;39.768;2.712;2023-04-24T00:29:44;101092.59;;;17.29;53.55
55291;BME280;41155;39.768;2.712;2023-04-24T00:32:09;101066.34;;;17.04;53.84
55291;BME280;41155;39.768;2.712;2023-04-24T00:34:35;101082.06;;;17.17;53.72
55291;BME280;41155;39.768;2.712;2023-04-24T00:37:00;101092.19;;;17.11;53.53
55291;BME280;41155;39.768;2.712;2023-04-24T00:39:26;101103.84;;;17.22;53.58
55291;BME280;41155;39.768;2.712;2023-04-24T00:41:52;101076.38;;;17.13;53.56
55291;BME280;41155;39.768;2.712;2023-04-24T00:44:18;101097.00;;;17.25;52.67
55291;BME280;41155;39.768;2.712;2023-04-24T00:46:43;101079.97;;;17.04;53.28
55291;BME280;41155;39.768;2.712;2023-04-24T00:49:09;101105.31;;;17.09;53.06
55291;BME280;41155;39.768;2.712;2023-04-24T00:51:35;101080.47;;;17.11;53.05
55291;BME280;41155;39.768;2.712;2023-04-24T00:54:02;101081.72;;;17.24;51.87
55291;BME280;41155;39.768;2.712;2023-04-24T00:56:27;101082.66;;;17.09;51.91
55291;BME280;41155;39.768;2.712;2023-04-24T00:58:53;101071.09;;;16.93;52.56
55291;BME280;41155;39.768;2.712;2023-04-24T01:01:22;101099.06;;;17.04;52.36
55291;BME280;41155;39.768;2.712;2023-04-24T01:03:51;101094.13;;;17.11;52.39
55291;BME280;41155;39.768;2.712;2023-04-24T01:06:18;101094.97;;;17.06;52.60
55291;BME280;41155;39.768;2.712;2023-04-24T01:08:45;101102.09;;;17.02;53.03
55291;BME280;41155;39.768;2.712;2023-04-24T01:11:11;101095.09;;;16.91;53.73
55291;BME280;41155;39.768;2.712;2023-04-24T01:13:37;101099.13;;;16.99;53.85
55291;BME280;41155;39.768;2.712;2023-04-24T01:16:03;101091.44;;;17.06;53.77
55291;BME280;41155;39.768;2.712;2023-04-24T01:18:28;101069.38;;;17.02;53.86
55291;BME280;41155;39.768;2.712;2023-04-24T01:20:57;101050.34;;;16.92;53.62
55291;BME280;41155;39.768;2.712;2023-04-24T01:23:23;101084.97;;;16.97;54.22
55291;BME280;41155;39.768;2.712;2023-04-24T01:25:49;101084.72;;;16.93;54.42
55291;BME280;41155;39.768;2.712;2023-04-24T01:28:16;101064.63;;;16.84;54.14
55291;BME280;41155;39.768;2.712;2023-04-24T01:30:42;101046.91;;;16.81;54.09
55291;BME280;41155;39.768;2.712;2023-04-24T01:33:07;101060.44;;;16.91;55.70
55291;BME280;41155;39.768;2.712;2023-04-24T01:35:33;101053.44;;;16.80;56.58
55291;BME280;41155;39.768;2.712;2023-04-24T01:38:01;101036.06;;;16.66;56.99
55291;BME280;41155;39.768;2.712;2023-04-24T01:40:26;101057.28;;;16.79;56.55
55291;BME280;41155;39.768;2.712;2023-04-24T01:42:52;101025.47;;;16.64;56.42
55291;BME280;41155;39.768;2.712;2023-04-24T01:45:17;101050.19;;;16.78;55.88
55291;BME280;41155;39.768;2.712;2023-04-24T01:47:43;101040.66;;;16.76;56.34
55291;BME280;41155;39.768;2.712;2023-04-24T01:50:09;101049.66;;;16.71;57.05
55291;BME280;41155;39.768;2.712;2023-04-24T01:52:35;101039.09;;;16.64;58.12
55291;BME280;41155;39.768;2.712;2023-04-24T01:55:04;101048.31;;;16.68;58.13
55291;BME280;41155;39.768;2.712;2023-04-24T01:57:31;101025.50;;;16.59;58.82
55291;BME280;41155;39.768;2.712;2023-04-24T01:59:57;101025.44;;;16.69;58.85
55291;BME280;41155;39.768;2.712;2023-04-24T02:02:23;101030.94;;;16.59;58.86
55291;BME280;41155;39.768;2.712;2023-04-24T02:04:55;101049.75;;;16.61;58.67
55291;BME280;41155;39.768;2.712;2023-04-24T02:07:21;101010.72;;;16.26;59.05
55291;BME280;41155;39.768;2.712;2023-04-24T02:09:46;101055.22;;;16.61;58.30
55291;BME280;41155;39.768;2.712;2023-04-24T02:12:12;101062.03;;;16.58;58.01
55291;BME280;41155;39.768;2.712;2023-04-24T02:14:37;101067.72;;;16.62;57.89
55291;BME280;41155;39.768;2.712;2023-04-24T02:17:03;101064.19;;;16.61;58.94
55291;BME280;41155;39.768;2.712;2023-04-24T02:19:28;101066.50;;;16.39;60.31
55291;BME280;41155;39.768;2.712;2023-04-24T02:21:54;101053.44;;;16.36;60.15
55291;BME280;41155;39.768;2.712;2023-04-24T02:24:19;101058.66;;;16.32;58.98
55291;BME280;41155;39.768;2.712;2023-04-24T02:26:45;101036.34;;;16.20;58.96
55291;BME280;41155;39.768;2.712;2023-04-24T02:29:10;101063.47;;;16.45;59.20
55291;BME280;41155;39.768;2.712;2023-04-24T02:31:36;101044.97;;;16.37;58.98
55291;BME280;41155;39.768;2.712;2023-04-24T02:34:01;101067.84;;;16.46;60.22
55291;BME280;41155;39.768;2.712;2023-04-24T02:36:27;101084.47;;;16.40;59.90
55291;BME280;41155;39.768;2.712;2023-04-24T02:38:52;101071.97;;;16.34;60.00
55291;BME280;41155;39.768;2.712;2023-04-24T02:41:18;101073.56;;;16.45;60.38
55291;BME280;41155;39.768;2.712;2023-04-24T02:43:43;101063.28;;;16.32;60.30
55291;BME280;41155;39.768;2.712;2023-04-24T02:46:09;101098.38;;;16.43;60.56
55291;BME280;41155;39.768;2.712;2023-04-24T02:48:34;101100.88;;;16.35;60.83
55291;BME280;41155;39.768;2.712;2023-04-24T02:51:00;101098.94;;;16.40;60.83
55291;BME280;41155;39.768;2.712;2023-04-24T02:53:25;101100.34;;;16.33;60.69
55291;BME280;41155;39.768;2.712;2023-04-24T02:55:51;101064.78;;;15.98;60.56
55291;BME280;41155;39.768;2.712;2023-04-24T02:58:16;101089.25;;;16.14;60.39
55291;BME280;41155;39.768;2.712;2023-04-24T03:00:42;101095.22;;;16.21;60.03
55291;BME280;41155;39.768;2.712;2023-04-24T03:03:08;101076.72;;;16.13;60.09
55291;BME280;41155;39.768;2.712;2023-04-24T03:05:34;101070.72;;;16.11;59.98
55291;BME280;41155;39.768;2.712;2023-04-24T03:07:59;101094.66;;;16.24;59.77
55291;BME280;41155;39.768;2.712;2023-04-24T03:10:25;101094.66;;;16.24;59.65
55291;BME280;41155;39.768;2.712;2023-04-24T03:12:50;101091.13;;;16.18;59.86
55291;BME280;41155;39.768;2.712;2023-04-24T03:15:16;101094.34;;;16.25;59.36
55291;BME280;41155;39.768;2.712;2023-04-24T03:17:42;101082.38;;;16.26;59.10
55291;BME280;41155;39.768;2.712;2023-04-24T03:20:09;101075.59;;;16.24;59.17
55291;BME280;41155;39.768;2.712;2023-04-24T03:22:35;101086.41;;;16.34;59.70
55291;BME280;41155;39.768;2.712;2023-04-24T03:25:00;101085.22;;;15.96;60.96
55291;BME280;41155;39.768;2.712;2023-04-24T03:27:26;101091.16;;;16.13;60.89
55291;BME280;41155;39.768;2.712;2023-04-24T03:29:52;101095.22;;;16.16;60.59
55291;BME280;41155;39.768;2.712;2023-04-24T03:32:23;101097.97;;;16.16;60.79
55291;BME280;41155;39.768;2.712;2023-04-24T03:34:49;101080.56;;;16.07;60.64
55291;BME280;41155;39.768;2.712;2023-04-24T03:37:15;101095.31;;;16.00;61.10
55291;BME280;41155;39.768;2.712;2023-04-24T03:39:41;101083.06;;;15.88;60.84
55291;BME280;41155;39.768;2.712;2023-04-24T03:42:06;101098.03;;;15.90;61.10
55291;BME280;41155;39.768;2.712;2023-04-24T03:44:33;101100.22;;;15.93;60.97
55291;BME280;41155;39.768;2.712;2023-04-24T03:47:00;101099.66;;;15.96;61.17
55291;BME280;41155;39.768;2.712;2023-04-24T03:49:25;101098.91;;;15.86;61.36
55291;BME280;41155;39.768;2.712;2023-04-24T03:51:51;101094.75;;;15.98;61.21
55291;BME280;41155;39.768;2.712;2023-04-24T03:54:20;101087.16;;;15.90;60.91
55291;BME280;41155;39.768;2.712;2023-04-24T03:56:46;101093.41;;;15.96;60.95
55291;BME280;41155;39.768;2.712;2023-04-24T03:59:11;101074.63;;;15.94;60.83
55291;BME280;41155;39.768;2.712;2023-04-24T04:01:37;101095.00;;;16.02;60.70
55291;BME280;41155;39.768;2.712;2023-04-24T04:04:03;101065.91;;;15.92;60.88
55291;BME280;41155;39.768;2.712;2023-04-24T04:06:29;101089.84;;;16.00;60.91
55291;BME280;41155;39.768;2.712;2023-04-24T04:08:56;101085.47;;;15.99;61.16
55291;BME280;41155;39.768;2.712;2023-04-24T04:11:21;101079.53;;;15.92;61.17
55291;BME280;41155;39.768;2.712;2023-04-24T04:13:47;101096.91;;;16.01;60.90
55291;BME280;41155;39.768;2.712;2023-04-24T04:16:13;101089.31;;;15.93;61.46
55291;BME280;41155;39.768;2.712;2023-04-24T04:18:38;101082.28;;;15.82;61.47
55291;BME280;41155;39.768;2.712;2023-04-24T04:21:04;101078.22;;;15.74;61.69
55291;BME280;41155;39.768;2.712;2023-04-24T04:23:30;101088.00;;;15.86;62.03
55291;BME280;41155;39.768;2.712;2023-04-24T04:25:55;101087.47;;;15.84;61.95
55291;BME280;41155;39.768;2.712;2023-04-24T04:28:21;101081.22;;;15.78;61.87
55291;BME280;41155;39.768;2.712;2023-04-24T04:30:46;101092.59;;;15.85;61.74
55291;BME280;41155;39.768;2.712;2023-04-24T04:33:12;101088.56;;;15.77;62.42
55291;BME280;41155;39.768;2.712;2023-04-24T04:35:39;101094.28;;;15.81;61.98
55291;BME280;41155;39.768;2.712;2023-04-24T04:38:06;101088.56;;;15.72;62.20
55291;BME280;41155;39.768;2.712;2023-04-24T04:40:33;101069.25;;;15.53;62.38
55291;BME280;41155;39.768;2.712;2023-04-24T04:42:59;101097.28;;;15.69;62.18
55291;BME280;41155;39.768;2.712;2023-04-24T04:45:24;101109.78;;;15.80;61.93
55291;BME280;41155;39.768;2.712;2023-04-24T04:47:52;101088.31;;;15.69;61.94
55291;BME280;41155;39.768;2.712;2023-04-24T04:50:18;101120.13;;;15.78;62.24
55291;BME280;41155;39.768;2.712;2023-04-24T04:52:44;101101.91;;;15.64;62.23
55291;BME280;41155;39.768;2.712;2023-04-24T04:55:10;101115.25;;;15.75;62.46
55291;BME280;41155;39.768;2.712;2023-04-24T04:57:36;101122.06;;;15.78;62.18
55291;BME280;41155;39.768;2.712;2023-04-24T05:00:01;101108.19;;;15.79;61.85
55291;BME280;41155;39.768;2.712;2023-04-24T05:02:27;101116.63;;;15.63;62.35
55291;BME280;41155;39.768;2.712;2023-04-24T05:04:52;101119.34;;;15.68;62.34
55291;BME280;41155;39.768;2.712;2023-04-24T05:07:18;101129.97;;;15.74;62.48
55291;BME280;41155;39.768;2.712;2023-04-24T05:09:43;101124.53;;;15.69;62.39
55291;BME280;41155;39.768;2.712;2023-04-24T05:12:10;101126.13;;;15.75;62.17
55291;BME280;41155;39.768;2.712;2023-04-24T05:14:35;101118.50;;;15.77;62.29
55291;BME280;41155;39.768;2.712;2023-04-24T05:17:00;101123.41;;;15.70;62.09
55291;BME280;41155;39.768;2.712;2023-04-24T05:19:26;101132.94;;;15.68;62.43
55291;BME280;41155;39.768;2.712;2023-04-24T05:21:51;101125.03;;;15.61;62.17
55291;BME280;41155;39.768;2.712;2023-04-24T05:24:17;101143.84;;;15.68;62.60
55291;BME280;41155;39.768;2.712;2023-04-24T05:26:42;101149.81;;;15.70;62.63
55291;BME280;41155;39.768;2.712;2023-04-24T05:29:08;101151.44;;;15.81;62.37
55291;BME280;41155;39.768;2.712;2023-04-24T05:31:33;101158.56;;;15.72;62.53
55291;BME280;41155;39.768;2.712;2023-04-24T05:33:59;101160.72;;;15.70;62.82
55291;BME280;41155;39.768;2.712;2023-04-24T05:36:24;101168.88;;;15.70;62.62
55291;BME280;41155;39.768;2.712;2023-04-24T05:38:50;101167.53;;;15.77;62.64
55291;BME280;41155;39.768;2.712;2023-04-24T05:41:15;101151.44;;;15.60;62.47
55291;BME280;41155;39.768;2.712;2023-04-24T05:43:41;101173.53;;;15.74;62.57
55291;BME280;41155;39.768;2.712;2023-04-24T05:46:06;101173.25;;;15.71;62.72
55291;BME280;41155;39.768;2.712;2023-04-24T05:48:32;101175.94;;;15.81;62.40
55291;BME280;41155;39.768;2.712;2023-04-24T05:50:57;101181.09;;;15.88;62.41
55291;BME280;41155;39.768;2.712;2023-04-24T05:53:23;101184.13;;;15.91;62.04
55291;BME280;41155;39.768;2.712;2023-04-24T05:55:48;101196.88;;;16.06;61.97
55291;BME280;41155;39.768;2.712;2023-04-24T05:58:14;101185.44;;;15.99;62.25
55291;BME280;41155;39.768;2.712;2023-04-24T06:00:39;101190.34;;;16.07;62.29
55291;BME280;41155;39.768;2.712;2023-04-24T06:03:07;101172.69;;;15.89;62.44
55291;BME280;41155;39.768;2.712;2023-04-24T06:05:34;101192.00;;;15.93;62.31
55291;BME280;41155;39.768;2.712;2023-04-24T06:08:00;101177.56;;;15.87;62.31
55291;BME280;41155;39.768;2.712;2023-04-24T06:10:25;101190.63;;;16.06;62.44
55291;BME280;41155;39.768;2.712;2023-04-24T06:12:50;101204.22;;;16.11;61.95
55291;BME280;41155;39.768;2.712;2023-04-24T06:15:16;101158.25;;;15.89;61.94
55291;BME280;41155;39.768;2.712;2023-04-24T06:17:41;101202.03;;;16.13;62.17
55291;BME280;41155;39.768;2.712;2023-04-24T06:20:07;101196.56;;;16.18;62.06
55291;BME280;41155;39.768;2.712;2023-04-24T06:22:33;101197.09;;;16.25;62.19
55291;BME280;41155;39.768;2.712;2023-04-24T06:24:59;101199.25;;;16.33;61.60
55291;BME280;41155;39.768;2.712;2023-04-24T06:27:25;101196.53;;;16.33;60.96
55291;BME280;41155;39.768;2.712;2023-04-24T06:29:51;101217.19;;;16.44;60.63
55291;BME280;41155;39.768;2.712;2023-04-24T06:32:23;101201.94;;;16.43;60.58
55291;BME280;41155;39.768;2.712;2023-04-24T06:34:51;101214.69;;;16.58;60.08
55291;BME280;41155;39.768;2.712;2023-04-24T06:37:18;101199.72;;;16.56;59.64
55291;BME280;41155;39.768;2.712;2023-04-24T06:39:44;101177.34;;;16.54;59.50
55291;BME280;41155;39.768;2.712;2023-04-24T06:42:09;101212.13;;;16.87;59.37
55291;BME280;41155;39.768;2.712;2023-04-24T06:44:35;101219.97;;;16.99;58.76
55291;BME280;41155;39.768;2.712;2023-04-24T06:47:09;101216.06;;;17.15;58.10
55291;BME280;41155;39.768;2.712;2023-04-24T06:49:36;101184.59;;;17.23;56.98
55291;BME280;41155;39.768;2.712;2023-04-24T06:52:02;101195.66;;;17.42;56.33
55291;BME280;41155;39.768;2.712;2023-04-24T06:54:28;101216.16;;;17.74;55.07
55291;BME280;41155;39.768;2.712;2023-04-24T06:56:54;101196.72;;;17.80;54.02
55291;BME280;41155;39.768;2.712;2023-04-24T06:59:20;101204.66;;;18.06;53.77
55291;BME280;41155;39.768;2.712;2023-04-24T07:01:46;101202.22;;;18.28;53.34
55291;BME280;41155;39.768;2.712;2023-04-24T07:04:11;101215.34;;;18.50;53.05
55291;BME280;41155;39.768;2.712;2023-04-24T07:06:38;101170.41;;;18.38;52.86
55291;BME280;41155;39.768;2.712;2023-04-24T07:09:04;101193.72;;;18.78;52.52
55291;BME280;41155;39.768;2.712;2023-04-24T07:11:30;101201.19;;;19.10;51.72
55291;BME280;41155;39.768;2.712;2023-04-24T07:13:55;101219.72;;;19.32;50.63
55291;BME280;41155;39.768;2.712;2023-04-24T07:16:21;101193.47;;;19.31;50.26
55291;BME280;41155;39.768;2.712;2023-04-24T07:18:47;101214.88;;;19.62;49.43
55291;BME280;41155;39.768;2.712;2023-04-24T07:21:12;101221.28;;;20.04;47.54
55291;BME280;41155;39.768;2.712;2023-04-24T07:23:37;101226.88;;;20.13;47.21
55291;BME280;41155;39.768;2.712;2023-04-24T07:26:03;101224.84;;;20.18;47.14
55291;BME280;41155;39.768;2.712;2023-04-24T07:28:29;101235.03;;;20.31;46.82
55291;BME280;41155;39.768;2.712;2023-04-24T07:30:57;101222.63;;;20.34;46.43
55291;BME280;41155;39.768;2.712;2023-04-24T07:33:25;101226.81;;;20.45;45.56
55291;BME280;41155;39.768;2.712;2023-04-24T07:35:51;101251.50;;;20.73;45.23
55291;BME280;41155;39.768;2.712;2023-04-24T07:38:17;101244.78;;;20.79;43.98
55291;BME280;41155;39.768;2.712;2023-04-24T07:40:45;101198.47;;;20.64;43.11
55291;BME280;41155;39.768;2.712;2023-04-24T07:43:11;101216.88;;;20.99;43.33
55291;BME280;41155;39.768;2.712;2023-04-24T07:45:36;101244.31;;;21.36;42.60
55291;BME280;41155;39.768;2.712;2023-04-24T07:48:03;101226.88;;;21.54;42.80
55291;BME280;41155;39.768;2.712;2023-04-24T07:50:29;101249.59;;;21.91;42.98
55291;BME280;41155;39.768;2.712;2023-04-24T07:52:54;101217.91;;;21.94;43.25
55291;BME280;41155;39.768;2.712;2023-04-24T07:55:20;101245.22;;;22.21;43.73
55291;BME280;41155;39.768;2.712;2023-04-24T07:57:45;101244.16;;;22.31;43.06
55291;BME280;41155;39.768;2.712;2023-04-24T08:00:11;101246.56;;;22.32;44.51
55291;BME280;41155;39.768;2.712;2023-04-24T08:02:37;101219.28;;;22.14;46.27
55291;BME280;41155;39.768;2.712;2023-04-24T08:05:03;101236.00;;;22.17;45.97
55291;BME280;41155;39.768;2.712;2023-04-24T08:07:29;101255.69;;;22.10;46.07
55291;BME280;41155;39.768;2.712;2023-04-24T08:09:54;101254.13;;;21.96;48.07
55291;BME280;41155;39.768;2.712;2023-04-24T08:12:20;101267.59;;;21.75;49.74
55291;BME280;41155;39.768;2.712;2023-04-24T08:14:45;101275.69;;;21.57;52.35
55291;BME280;41155;39.768;2.712;2023-04-24T08:17:14;101277.88;;;21.69;52.61
55291;BME280;41155;39.768;2.712;2023-04-24T08:19:40;101276.16;;;21.73;53.13
55291;BME280;41155;39.768;2.712;2023-04-24T08:22:08;101275.28;;;21.64;53.64
55291;BME280;41155;39.768;2.712;2023-04-24T08:24:33;101273.31;;;21.42;54.24
55291;BME280;41155;39.768;2.712;2023-04-24T08:26:59;101266.84;;;21.38;54.46
55291;BME280;41155;39.768;2.712;2023-04-24T08:29:25;101257.03;;;21.32;53.93
55291;BME280;41155;39.768;2.712;2023-04-24T08:31:51;101292.38;;;21.61;54.47
55291;BME280;41155;39.768;2.712;2023-04-24T08:34:19;101301.63;;;21.87;55.23
55291;BME280;41155;39.768;2.712;2023-04-24T08:36:45;101291.72;;;22.09;54.37
55291;BME280;41155;39.768;2.712;2023-04-24T08:39:10;101298.97;;;22.27;54.63
55291;BME280;41155;39.768;2.712;2023-04-24T08:41:37;101303.53;;;22.32;56.15
55291;BME280;41155;39.768;2.712;2023-04-24T08:44:03;101312.81;;;22.45;56.00
55291;BME280;41155;39.768;2.712;2023-04-24T08:46:30;101305.19;;;22.42;54.75
55291;BME280;41155;39.768;2.712;2023-04-24T08:48:56;101312.63;;;22.81;54.59
55291;BME280;41155;39.768;2.712;2023-04-24T08:51:22;101317.03;;;22.91;54.98
55291;BME280;41155;39.768;2.712;2023-04-24T08:53:49;101321.47;;;23.09;54.92
55291;BME280;41155;39.768;2.712;2023-04-24T08:56:17;101313.69;;;23.20;54.45
55291;BME280;41155;39.768;2.712;2023-04-24T08:58:43;101309.97;;;23.07;54.59
55291;BME280;41155;39.768;2.712;2023-04-24T09:01:09;101323.47;;;23.52;53.79
55291;BME280;41155;39.768;2.712;2023-04-24T09:03:34;101328.00;;;23.65;52.72
55291;BME280;41155;39.768;2.712;2023-04-24T09:06:01;101327.19;;;23.91;51.71
55291;BME280;41155;39.768;2.712;2023-04-24T09:08:28;101325.06;;;24.14;51.37
55291;BME280;41155;39.768;2.712;2023-04-24T09:10:54;101330.66;;;24.35;50.84
55291;BME280;41155;39.768;2.712;2023-04-24T09:13:20;101333.88;;;24.54;49.75
55291;BME280;41155;39.768;2.712;2023-04-24T09:15:46;101327.75;;;24.78;48.84
55291;BME280;41155;39.768;2.712;2023-04-24T09:18:11;101315.75;;;25.04;47.95
55291;BME280;41155;39.768;2.712;2023-04-24T09:21:07;101336.78;;;25.26;46.93
55291;BME280;41155;39.768;2.712;2023-04-24T09:23:33;101312.59;;;25.23;46.66
55291;BME280;41155;39.768;2.712;2023-04-24T09:26:00;101337.31;;;25.82;46.13
55291;BME280;41155;39.768;2.712;2023-04-24T09:28:32;101333.59;;;26.57;44.00
55291;BME280;41155;39.768;2.712;2023-04-24T09:31:06;101339.84;;;26.78;43.10
55291;BME280;41155;39.768;2.712;2023-04-24T09:33:32;101334.75;;;26.93;41.98
55291;BME280;41155;39.768;2.712;2023-04-24T09:35:58;101338.78;;;26.95;42.10
55291;BME280;41155;39.768;2.712;2023-04-24T09:38:35;101315.56;;;27.65;39.75
55291;BME280;41155;39.768;2.712;2023-04-24T09:41:05;101321.19;;;28.25;38.62
55291;BME280;41155;39.768;2.712;2023-04-24T09:43:31;101341.06;;;29.06;36.79
55291;BME280;41155;39.768;2.712;2023-04-24T09:45:58;101343.16;;;29.83;35.32
55291;BME280;41155;39.768;2.712;2023-04-24T09:48:35;101334.50;;;30.54;33.53
55291;BME280;41155;39.768;2.712;2023-04-24T09:51:02;101341.03;;;31.75;30.28
55291;BME280;41155;39.768;2.712;2023-04-24T09:53:29;101341.50;;;33.11;29.75
55291;BME280;41155;39.768;2.712;2023-04-24T09:55:55;101360.47;;;33.49;29.04
55291;BME280;41155;39.768;2.712;2023-04-24T09:58:26;101360.75;;;35.07;26.11
55291;BME280;41155;39.768;2.712;2023-04-24T10:00:55;101351.03;;;35.37;25.23
55291;BME280;41155;39.768;2.712;2023-04-24T10:03:25;101354.31;;;34.99;25.80
55291;BME280;41155;39.768;2.712;2023-04-24T10:05:52;101353.63;;;35.87;24.91
55291;BME280;41155;39.768;2.712;2023-04-24T10:08:19;101350.09;;;37.25;22.74
55291;BME280;41155;39.768;2.712;2023-04-24T10:10:45;101338.34;;;36.54;23.38
55291;BME280;41155;39.768;2.712;2023-04-24T10:13:12;101335.91;;;37.32;22.30
55291;BME280;41155;39.768;2.712;2023-04-24T10:15:40;101347.94;;;39.59;20.24
55291;BME280;41155;39.768;2.712;2023-04-24T10:18:06;101347.59;;;40.75;18.88
55291;BME280;41155;39.768;2.712;2023-04-24T10:20:34;101326.63;;;41.98;17.56
55291;BME280;41155;39.768;2.712;2023-04-24T10:23:00;101304.69;;;41.47;17.69
55291;BME280;41155;39.768;2.712;2023-04-24T10:25:29;101345.19;;;41.86;17.79
55291;BME280;41155;39.768;2.712;2023-04-24T10:27:56;101341.00;;;42.42;17.38
55291;BME280;41155;39.768;2.712;2023-04-24T10:30:26;101346.34;;;41.21;18.41
55291;BME280;41155;39.768;2.712;2023-04-24T10:32:52;101335.78;;;39.78;20.23
55291;BME280;41155;39.768;2.712;2023-04-24T10:35:18;101335.50;;;40.09;19.87
55291;BME280;41155;39.768;2.712;2023-04-24T10:37:59;101337.81;;;41.50;18.20
55291;BME280;41155;39.768;2.712;2023-04-24T10:40:35;101327.75;;;42.13;18.18
55291;BME280;41155;39.768;2.712;2023-04-24T10:43:08;101329.19;;;43.22;16.47
55291;BME280;41155;39.768;2.712;2023-04-24T10:45:39;101319.78;;;40.40;19.18
55291;BME280;41155;39.768;2.712;2023-04-24T10:48:06;101347.03;;;42.06;17.82
55291;BME280;41155;39.768;2.712;2023-04-24T10:50:51;101346.09;;;41.83;17.77
55291;BME280;41155;39.768;2.712;2023-04-24T10:53:19;101342.16;;;42.19;17.52
55291;BME280;41155;39.768;2.712;2023-04-24T10:56:02;101338.63;;;41.76;17.91
55291;BME280;41155;39.768;2.712;2023-04-24T10:58:45;101330.81;;;40.67;18.58
55291;BME280;41155;39.768;2.712;2023-04-24T11:03:57;101334.13;;;40.79;18.51
55291;BME280;41155;39.768;2.712;2023-04-24T11:06:36;101334.19;;;41.63;18.26
55291;BME280;41155;39.768;2.712;2023-04-24T11:09:09;101309.50;;;41.08;18.02
55291;BME280;41155;39.768;2.712;2023-04-24T11:11:38;101316.31;;;40.16;19.34
55291;BME280;41155;39.768;2.712;2023-04-24T11:14:09;101318.44;;;40.12;20.00
55291;BME280;41155;39.768;2.712;2023-04-24T11:16:38;101315.84;;;38.89;21.19
55291;BME280;41155;39.768;2.712;2023-04-24T11:19:09;101319.22;;;38.80;21.39
55291;BME280;41155;39.768;2.712;2023-04-24T11:24:48;101306.69;;;39.81;20.17
55291;BME280;41155;39.768;2.712;2023-04-24T11:27:20;101291.53;;;38.01;21.98
55291;BME280;41155;39.768;2.712;2023-04-24T11:32:34;101299.47;;;37.83;22.65
55291;BME280;41155;39.768;2.712;2023-04-24T11:37:47;101285.34;;;37.25;23.33
55291;BME280;41155;39.768;2.712;2023-04-24T11:40:15;101291.09;;;37.48;22.61
55291;BME280;41155;39.768;2.712;2023-04-24T11:42:46;101302.84;;;37.09;23.32
55291;BME280;41155;39.768;2.712;2023-04-24T11:45:13;101291.84;;;37.80;21.87
55291;BME280;41155;39.768;2.712;2023-04-24T11:47:39;101314.09;;;38.52;20.81
55291;BME280;41155;39.768;2.712;2023-04-24T11:50:10;101313.34;;;38.71;20.88
55291;BME280;41155;39.768;2.712;2023-04-24T11:52:38;101290.59;;;37.84;21.03
55291;BME280;41155;39.768;2.712;2023-04-24T11:55:06;101275.53;;;37.94;20.98
55291;BME280;41155;39.768;2.712;2023-04-24T11:57:31;101302.63;;;39.98;19.74
55291;BME280;41155;39.768;2.712;2023-04-24T12:00:02;101293.53;;;41.27;17.44
55291;BME280;41155;39.768;2.712;2023-04-24T12:02:28;101281.94;;;40.02;18.88
55291;BME280;41155;39.768;2.712;2023-04-24T12:04:54;101287.44;;;40.25;19.27
55291;BME280;41155;39.768;2.712;2023-04-24T12:07:20;101269.47;;;39.83;19.63
55291;BME280;41155;39.768;2.712;2023-04-24T12:09:47;101267.31;;;41.78;17.93
55291;BME280;41155;39.768;2.712;2023-04-24T12:12:15;101263.41;;;41.21;17.94
55291;BME280;41155;39.768;2.712;2023-04-24T12:14:54;101273.69;;;38.78;21.02
55291;BME280;41155;39.768;2.712;2023-04-24T12:17:31;101254.47;;;39.86;20.00
55291;BME280;41155;39.768;2.712;2023-04-24T12:20:01;101263.88;;;38.43;21.50
55291;BME280;41155;39.768;2.712;2023-04-24T12:22:28;101252.78;;;39.16;20.40
55291;BME280;41155;39.768;2.712;2023-04-24T12:25:02;101247.75;;;39.43;20.50
55291;BME280;41155;39.768;2.712;2023-04-24T12:27:31;101241.78;;;38.81;20.80
55291;BME280;41155;39.768;2.712;2023-04-24T12:29:59;101223.97;;;39.77;19.99
55291;BME280;41155;39.768;2.712;2023-04-24T12:32:25;101261.78;;;42.92;17.29
55291;BME280;41155;39.768;2.712;2023-04-24T12:34:52;101254.75;;;43.37;16.14
55291;BME280;41155;39.768;2.712;2023-04-24T12:37:18;101255.03;;;44.29;15.41
55291;BME280;41155;39.768;2.712;2023-04-24T12:40:11;101258.88;;;43.36;16.02
55291;BME280;41155;39.768;2.712;2023-04-24T12:42:47;101264.09;;;44.36;15.39
55291;BME280;41155;39.768;2.712;2023-04-24T12:45:14;101246.50;;;42.54;16.89
55291;BME280;41155;39.768;2.712;2023-04-24T12:47:41;101256.25;;;43.91;15.70
55291;BME280;41155;39.768;2.712;2023-04-24T12:50:12;101252.22;;;44.84;15.18
55291;BME280;41155;39.768;2.712;2023-04-24T12:52:38;101231.97;;;44.91;15.06
55291;BME280;41155;39.768;2.712;2023-04-24T12:55:05;101219.31;;;44.55;15.66
55291;BME280;41155;39.768;2.712;2023-04-24T12:57:33;101191.66;;;44.74;15.09
55291;BME280;41155;39.768;2.712;2023-04-24T13:00:00;101222.50;;;44.30;15.49